Messwerte Oran/Tafaraoui

Temperatur

Temperatur
°C
1573509600 23.00 23.00
1573513200 0.00 0.00
1573516800 1.00 1.00 13
1573520400 2.00 2.00
1573524000 3.00 3.00
1573527600 4.00 4.00 11
1573531200 5.00 5.00 11
1573534800 6.00 6.00 11
1573538400 7.00 7.00 10
1573542000 8.00 8.00 10
1573545600 9.00 9.00 11
1573549200 10.00 10.00 14
1573552800 11.00 11.00 16
1573556400 12.00 12.00
1573560000 13.00 13.00 18
1573563600 14.00 14.00 18
1573567200 15.00 15.00 19
1573570800 16.00 16.00
1573574400 17.00 17.00 19
1573578000 18.00 18.00 16
1573581600 19.00 19.00 15
1573585200 20.00 20.00 15
1573588800 21.00 21.00
1573592400 22.00 22.00 14

Aktuellste Messwerte

Wettercharakter
Wetter: meist klar
Temperatur
14 °C
Feuchtigkeit
70 %
Wind
25 km/hWindrichtung: Südwest
Luftdruck
1014 hPa
Messzeit: 12. November 2019, 22.00Datenquelle: METAR

Weitere Messstationen in der Nähe

Messstation Temperatur Entfernung
Oran 13 °C 12 km
Mascara Griss 11 °C 71 km
Tlemcen 13 °C 103 km
Oujda 13 °C 153 km
Tiaret 6 °C 182 km
Chlef 10 °C 184 km
Mecheria - 219 km
Almería 17 °C 221 km

Wind

Windrichtung Böen Mittelwind
° km/h km/h
1573509600 23.00 22.00 - 23.00
1573513200 0.00 23.00 - 0.00
1573516800 1.00 0.00 - 1.00 200° 5
1573520400 2.00 1.00 - 2.00
1573524000 3.00 2.00 - 3.00
1573527600 4.00 3.00 - 4.00 220° 10
1573531200 5.00 4.00 - 5.00 260° 15
1573534800 6.00 5.00 - 6.00 200° 5
1573538400 7.00 6.00 - 7.00 250° 15
1573542000 8.00 7.00 - 8.00 250° 10
1573545600 9.00 8.00 - 9.00 260° 10
1573549200 10.00 9.00 - 10.00 260° 10
1573552800 11.00 10.00 - 11.00 220° 5
1573556400 12.00 11.00 - 12.00
1573560000 13.00 12.00 - 13.00 260° 10
1573563600 14.00 13.00 - 14.00 320° 10
1573567200 15.00 14.00 - 15.00 310° 15
1573570800 16.00 15.00 - 16.00
1573574400 17.00 16.00 - 17.00 290° 20
1573578000 18.00 17.00 - 18.00 260° 20
1573581600 19.00 18.00 - 19.00 230° 10
1573585200 20.00 19.00 - 20.00 230° 15
1573588800 21.00 20.00 - 21.00
1573592400 22.00 21.00 - 22.00 230° 25

Ihre Wetterstation

Fehlt Ihre Wetterstation auf unserem Portal?

Schreiben Sie an network@meteonews.ch

Klima

Wann ist es am wärmsten? Wann regnet es am wenigsten? Unsere Klimadaten geben Auskunft.